< < Back
Terminal Aerodrome Forecast


Current Version              Previous Versions:   1  2  3  4  5  6  7  8  9  

Terminal Aerodrome Forecast

179
FTUS44 KOHX 251100
TAFBNA
TAF
KBNA 251138Z 2512/2612 19003KT P6SM FEW250
     FM251400 26008KT P6SM SCT040
     FM260700 32004KT 4SM BR SCT010=



Latest METAR

837
SAUS70 KWBC 260100 RRC
MTRBNA
METAR KBNA 260053Z 00000KT 10SM CLR 19/17 A3002 RMK AO2 SLP165
T01940167


USA.gov is the U.S. government's official web portal to all federal, state and local government web resources and services.